Terminal Aerodrome Forecast
Issued by NWS

Home | Current Version | Previous Version | Text Only | Print | Product List | Glossary On
Versions: 1 2 3 4 5 6 7 8 9 10 11 12 13 14 15 16 17 18 19 20 21 22 23
000
FTUS43 KDLH 251902 AAA
TAFHIB
TAF AMD
KHIB 251902Z 2519/2618 10011G18KT P6SM BKN100
     FM252200 12011KT 5SM -RA OVC040
     FM260200 12012KT 4SM -SHRA BR OVC020
      TEMPO 2602/2606 3SM -TSRA OVC015CB
     FM261200 16012KT 5SM -SHRA OVC020=

USA.gov is the U.S. government's official web portal to all federal, state and local government web resources and services.